Time;durP1;ratioP1;P1;durP2;ratioP2;P2;SDS_P1;SDS_P2;PMS_P1;PMS_P2;Temp;Humidity;BMP_temperature;BMP_pressure;BME280_temperature;BME280_humidity;BME280_pressure;Samples;Min_cycle;Max_cycle;Signal;HPM_P1;HPM_P2
2022/09/27 00:03:54;;;;;;;;;;;10.20;99.90;;;;;;12471253;28;19940;-86
2022/09/27 00:09:55;;;;;;;;;;;10.20;99.90;;;;;;12484956;28;19929;-85
2022/09/27 00:15:58;;;;;;;;;;;10.20;99.90;;;;;;12486085;28;19929;-86
2022/09/27 00:22:00;;;;;;;;;;;10.30;99.90;;;;;;12483098;28;20059;-85
2022/09/27 00:28:02;;;;;;;;;;;10.20;99.90;;;;;;12489075;28;19925;-85
2022/09/27 00:34:04;;;;;;;;;;;10.30;99.90;;;;;;12489358;28;19929;-85
2022/09/27 00:40:06;;;;;;;;;;;10.20;99.90;;;;;;12478926;28;19932;-85
2022/09/27 00:46:07;;;;;;;;;;;10.20;99.90;;;;;;12482092;28;19929;-86
2022/09/27 00:52:19;;;;;;;;;;;10.30;99.90;;;;;;12482384;28;19936;-85
2022/09/27 00:58:22;;;;;;;;;;;10.20;99.90;;;;;;12483940;28;19925;-85
2022/09/27 01:04:26;;;;;;;;;;;10.10;99.90;;;;;;12471775;28;19936;-85
2022/09/27 01:10:30;;;;;;;;;;;10.10;99.90;;;;;;12433591;28;19926;-85
2022/09/27 01:17:00;;;;;;;;;;;10.10;99.90;;;;;;12441486;28;19926;-85
2022/09/27 01:23:21;;;;;;;;;;;10.10;99.90;;;;;;12355252;28;19925;-85
2022/09/27 01:29:48;;;;;;;;;;;10.10;99.90;;;;;;12404278;28;19926;-85
2022/09/27 01:35:49;;;;;;;;;;;10.10;99.90;;;;;;12428861;28;19926;-85
2022/09/27 01:42:03;;;;;;;;;;;10.10;99.90;;;;;;12424177;28;19926;-85
2022/09/27 01:48:14;;;;;;;;;;;10.20;99.90;;;;;;12432619;28;19929;-85
2022/09/27 01:54:18;;;;;;;;;;;10.10;99.90;;;;;;12415471;28;19932;-85
2022/09/27 02:00:20;;;;;;;;;;;10.10;99.90;;;;;;12420839;28;19929;-85
2022/09/27 02:06:33;;;;;;;;;;;10.10;99.90;;;;;;12433475;28;19925;-85
2022/09/27 02:12:41;;;;;;;;;;;10.10;99.90;;;;;;12481904;28;19929;-85
2022/09/27 02:18:50;;;;;;;;;;;10.10;99.90;;;;;;12466161;28;19932;-86
2022/09/27 02:24:55;;;;;;;;;;;10.20;99.90;;;;;;12475156;28;19925;-85
2022/09/27 02:30:58;;;;;;;;;;;10.20;99.90;;;;;;12473449;28;20308;-85
2022/09/27 02:36:59;;;;;;;;;;;10.20;99.90;;;;;;12470990;28;19929;-85
2022/09/27 02:43:02;;;;;;;;;;;10.10;99.90;;;;;;12465838;28;20394;-85
2022/09/27 02:49:15;;;;;;;;;;;10.10;99.90;;;;;;12467059;28;19934;-86
2022/09/27 02:55:20;;;;;;;;;;;10.10;99.90;;;;;;12489993;28;20062;-85
2022/09/27 03:01:34;;;;;;;;;;;10.00;99.90;;;;;;12465676;28;19925;-85
2022/09/27 03:07:37;;;;;;;;;;;10.00;99.90;;;;;;12464240;28;19952;-85
2022/09/27 03:13:39;;;;;;;;;;;9.90;99.90;;;;;;12464030;28;19925;-85
2022/09/27 03:20:01;;;;;;;;;;;9.90;99.90;;;;;;12462295;28;19948;-85
2022/09/27 03:26:02;;;;;;;;;;;9.90;99.90;;;;;;12470949;28;19929;-85
2022/09/27 03:32:04;;;;;;;;;;;9.80;99.90;;;;;;12463705;28;19934;-85
2022/09/27 03:38:06;;;;;;;;;;;9.80;99.90;;;;;;12459345;28;19925;-85
2022/09/27 03:44:08;;;;;;;;;;;9.80;99.90;;;;;;12467026;28;19929;-85
2022/09/27 03:50:10;;;;;;;;;;;9.80;99.90;;;;;;12476853;28;19932;-85
2022/09/27 03:56:12;;;;;;;;;;;9.80;99.90;;;;;;12466829;28;19944;-85
2022/09/27 04:02:13;;;;;;;;;;;9.80;99.90;;;;;;12476189;28;19925;-85
2022/09/27 04:08:15;;;;;;;;;;;9.80;99.90;;;;;;12467374;28;19925;-85
2022/09/27 04:14:17;;;;;;;;;;;9.80;99.90;;;;;;12472753;28;19936;-85
2022/09/27 04:20:18;;;;;;;;;;;9.80;99.90;;;;;;12469627;28;19929;-85
2022/09/27 04:26:21;;;;;;;;;;;9.70;99.90;;;;;;12472473;28;19925;-85
2022/09/27 04:32:22;;;;;;;;;;;9.70;99.90;;;;;;12459073;28;19925;-85
2022/09/27 04:38:24;;;;;;;;;;;9.70;99.90;;;;;;12474731;28;19932;-85
2022/09/27 04:44:25;;;;;;;;;;;9.60;99.90;;;;;;12470051;28;20393;-84
2022/09/27 04:50:27;;;;;;;;;;;9.60;99.90;;;;;;12484545;28;19929;-85
2022/09/27 04:56:32;;;;;;;;;;;9.60;99.90;;;;;;12469731;28;19960;-85
2022/09/27 05:02:34;;;;;;;;;;;9.60;99.90;;;;;;12474946;28;19932;-85
2022/09/27 05:08:35;;;;;;;;;;;9.50;99.90;;;;;;12474154;28;20008;-85
2022/09/27 05:14:37;;;;;;;;;;;9.60;99.90;;;;;;12460884;28;19933;-85
2022/09/27 05:20:39;;;;;;;;;;;9.50;99.90;;;;;;12462203;28;19933;-84
2022/09/27 05:26:40;;;;;;;;;;;9.50;99.90;;;;;;12461939;28;19936;-85
2022/09/27 05:32:44;;;;;;;;;;;9.50;99.90;;;;;;12467013;28;19926;-85
2022/09/27 05:38:45;;;;;;;;;;;9.50;99.90;;;;;;12476235;28;20373;-86
2022/09/27 05:44:47;;;;;;;;;;;9.50;99.90;;;;;;12460846;28;19952;-85
2022/09/27 05:50:49;;;;;;;;;;;9.50;99.90;;;;;;12466522;28;19925;-85
2022/09/27 05:56:57;;;;;;;;;;;9.40;99.90;;;;;;12473926;28;19925;-86
2022/09/27 06:03:00;;;;;;;;;;;9.40;99.90;;;;;;12458764;28;20290;-86
2022/09/27 06:09:01;;;;;;;;;;;9.30;99.90;;;;;;12451239;28;19925;-85
2022/09/27 06:15:03;;;;;;;;;;;9.30;99.90;;;;;;12461534;28;20409;-85
2022/09/27 06:21:05;;;;;;;;;;;9.40;99.90;;;;;;12473734;28;19926;-86
2022/09/27 06:27:07;;;;;;;;;;;9.30;99.90;;;;;;12458395;28;19926;-85
2022/09/27 06:33:10;;;;;;;;;;;9.30;99.90;;;;;;12468202;28;19925;-86
2022/09/27 06:39:12;;;;;;;;;;;9.30;99.90;;;;;;12476930;28;19932;-86
2022/09/27 06:45:13;;;;;;;;;;;9.40;99.90;;;;;;12465315;28;20324;-86
2022/09/27 06:51:15;;;;;;;;;;;9.40;99.90;;;;;;12459230;28;19925;-85
2022/09/27 07:00:22;;;;;;;;;;;9.40;99.90;;;;;;12471645;28;19925;-86
2022/09/27 07:03:40;;;;;;;;;;;9.40;99.90;;;;;;12467300;28;19936;-86
2022/09/27 07:09:42;;;;;;;;;;;9.40;99.90;;;;;;12462628;28;19933;-86
2022/09/27 07:15:44;;;;;;;;;;;9.40;99.90;;;;;;12478342;28;20034;-85
2022/09/27 07:21:49;;;;;;;;;;;9.40;99.90;;;;;;12468515;28;20177;-86
2022/09/27 07:27:53;;;;;;;;;;;9.40;99.90;;;;;;12473281;28;19930;-86
2022/09/27 07:33:55;;;;;;;;;;;9.40;99.90;;;;;;12467035;28;20392;-86
2022/09/27 07:39:57;;;;;;;;;;;9.50;99.90;;;;;;12484234;28;20393;-86
2022/09/27 07:45:59;;;;;;;;;;;9.60;99.90;;;;;;12461718;28;19925;-86
2022/09/27 07:52:01;;;;;;;;;;;9.50;99.90;;;;;;12478040;28;20289;-85
2022/09/27 07:58:04;;;;;;;;;;;9.60;99.90;;;;;;12484138;28;19925;-86
2022/09/27 08:04:05;;;;;;;;;;;9.70;99.90;;;;;;12458470;28;19926;-87
2022/09/27 08:10:07;;;;;;;;;;;9.70;99.90;;;;;;12467358;28;20644;-86
2022/09/27 08:16:10;;;;;;;;;;;9.80;99.90;;;;;;12477202;28;19933;-86
2022/09/27 08:22:12;;;;;;;;;;;9.90;99.90;;;;;;12473633;28;20335;-86
2022/09/27 08:28:14;;;;;;;;;;;9.90;99.90;;;;;;12470692;28;19930;-86
2022/09/27 08:34:15;;;;;;;;;;;10.00;99.90;;;;;;12461493;28;20520;-86
2022/09/27 08:40:22;;;;;;;;;;;10.20;99.90;;;;;;12479169;28;19970;-86
2022/09/27 08:46:34;;;;;;;;;;;10.40;99.90;;;;;;12468052;28;19924;-86
2022/09/27 08:52:42;;;;;;;;;;;10.40;99.90;;;;;;12469812;28;19933;-86
2022/09/27 08:59:13;;;;;;;;;;;10.40;99.90;;;;;;12478244;28;19929;-86
2022/09/27 09:05:18;;;;;;;;;;;10.60;99.90;;;;;;12441649;28;19925;-86
2022/09/27 09:17:52;;;;;;;;;;;10.90;99.90;;;;;;12471417;28;19929;-86
2022/09/27 09:24:06;;;;;;;;;;;10.80;99.90;;;;;;12463976;28;19933;-87
2022/09/27 09:30:21;;;;;;;;;;;10.90;99.90;;;;;;12471685;28;19929;-87
2022/09/27 09:36:33;;;;;;;;;;;11.00;99.90;;;;;;12477694;28;19925;-87
2022/09/27 09:42:41;;;;;;;;;;;10.90;99.90;;;;;;12477470;28;19929;-86
2022/09/27 09:48:45;;;;;;;;;;;10.80;99.90;;;;;;12472559;28;19925;-86
2022/09/27 09:54:49;;;;;;;;;;;10.60;99.90;;;;;;12473628;28;19951;-86
2022/09/27 10:00:53;;;;;;;;;;;10.70;99.90;;;;;;12460459;28;19932;-86
2022/09/27 10:06:57;;;;;;;;;;;10.60;99.90;;;;;;12465126;28;19979;-86
2022/09/27 10:13:01;;;;;;;;;;;10.30;99.90;;;;;;12462109;28;19929;-85
2022/09/27 10:19:04;;;;;;;;;;;10.30;99.90;;;;;;12463179;28;19933;-86
2022/09/27 10:25:07;;;;;;;;;;;10.40;99.90;;;;;;12473847;28;19929;-87
2022/09/27 10:31:10;;;;;;;;;;;10.90;99.90;;;;;;12462883;28;20296;-86
2022/09/27 10:37:21;;;;;;;;;;;11.50;99.90;;;;;;12457506;28;19924;-86
2022/09/27 10:43:30;;;;;;;;;;;12.10;99.90;;;;;;12463317;28;19929;-87
2022/09/27 10:49:41;;;;;;;;;;;11.90;99.90;;;;;;12455991;28;20377;-86
2022/09/27 10:55:46;;;;;;;;;;;11.60;99.90;;;;;;12452171;28;19925;-86
2022/09/27 11:01:49;;;;;;;;;;;12.00;99.90;;;;;;12458455;28;20369;-86
2022/09/27 11:07:52;;;;;;;;;;;12.00;99.90;;;;;;12450069;28;19930;-85
2022/09/27 11:14:04;;;;;;;;;;;12.30;99.90;;;;;;12454829;28;19936;-85
2022/09/27 11:20:06;;;;;;;;;;;12.80;99.90;;;;;;12461855;28;19930;-85
2022/09/27 11:26:43;;;;;;;;;;;12.80;99.90;;;;;;12470256;28;19933;-85
2022/09/27 11:32:57;;;;;;;;;;;12.80;99.90;;;;;;12404006;28;19932;-86
2022/09/27 11:39:11;;;;;;;;;;;12.70;99.90;;;;;;12486353;28;19937;-85
2022/09/27 11:45:38;;;;;;;;;;;12.70;99.90;;;;;;12461809;28;19926;-85
2022/09/27 11:52:21;;;;;;;;;;;13.10;99.90;;;;;;12466085;28;19932;-85
2022/09/27 11:58:51;;;;;;;;;;;13.50;99.90;;;;;;12469988;28;19926;-86
2022/09/27 12:04:52;;;;;;;;;;;13.60;99.90;;;;;;12454622;28;19945;-86
2022/09/27 12:10:59;;;;;;;;;;;12.90;99.90;;;;;;12455526;28;20293;-86
2022/09/27 12:17:02;;;;;;;;;;;12.40;99.90;;;;;;12464812;28;19936;-87
2022/09/27 12:23:25;;;;;;;;;;;12.00;99.90;;;;;;12479420;28;20459;-87
2022/09/27 12:29:32;;;;;;;;;;;11.90;99.90;;;;;;12465156;28;19926;-86
2022/09/27 12:35:38;;;;;;;;;;;11.60;99.90;;;;;;12464799;28;19926;-86
2022/09/27 12:41:43;;;;;;;;;;;11.60;99.90;;;;;;12467512;28;19933;-86
2022/09/27 12:48:03;;;;;;;;;;;11.60;99.90;;;;;;12471803;28;19925;-86
2022/09/27 12:54:11;;;;;;;;;;;11.60;99.90;;;;;;12477148;28;20385;-85
2022/09/27 13:00:15;;;;;;;;;;;11.40;99.90;;;;;;12473719;28;19948;-86
2022/09/27 13:06:34;;;;;;;;;;;11.00;99.90;;;;;;12458199;28;19932;-85
2022/09/27 13:12:38;;;;;;;;;;;10.80;99.90;;;;;;12465865;28;19926;-87
2022/09/27 13:18:46;;;;;;;;;;;11.30;99.90;;;;;;12478344;28;20377;-85
2022/09/27 13:24:48;;;;;;;;;;;11.80;99.90;;;;;;12466554;28;19948;-85
2022/09/27 13:30:50;;;;;;;;;;;11.60;99.90;;;;;;12456020;28;20301;-85
2022/09/27 13:36:52;;;;;;;;;;;11.40;99.90;;;;;;12465643;28;19981;-86
2022/09/27 13:43:03;;;;;;;;;;;10.70;99.90;;;;;;12476448;28;20420;-86
2022/09/27 13:49:25;;;;;;;;;;;10.40;99.90;;;;;;12447460;28;20396;-86
2022/09/27 13:55:37;;;;;;;;;;;10.30;99.90;;;;;;12469516;28;19936;-86
2022/09/27 14:01:41;;;;;;;;;;;10.10;99.90;;;;;;12482963;28;19917;-86
2022/09/27 14:07:43;;;;;;;;;;;10.20;99.90;;;;;;12521028;28;19930;-87
2022/09/27 14:13:45;;;;;;;;;;;10.20;99.90;;;;;;12536565;28;19913;-86
2022/09/27 14:19:49;;;;;;;;;;;10.40;99.90;;;;;;12522045;28;19941;-87
2022/09/27 14:25:52;;;;;;;;;;;10.60;99.90;;;;;;12518910;28;20024;-86
2022/09/27 14:32:04;;;;;;;;;;;11.20;99.90;;;;;;12511301;28;20931;-87
2022/09/27 14:38:07;;;;;;;;;;;11.40;99.90;;;;;;12535092;28;19933;-87
2022/09/27 14:44:30;;;;;;;;;;;11.30;99.90;;;;;;12476062;28;19929;-86
2022/09/27 14:50:32;;;;;;;;;;;11.00;99.90;;;;;;12470336;28;19930;-86
2022/09/27 14:56:36;;;;;;;;;;;10.70;99.90;;;;;;12471797;28;19925;-86
2022/09/27 15:02:40;;;;;;;;;;;10.50;99.90;;;;;;12463542;28;19949;-86
2022/09/27 15:08:43;;;;;;;;;;;10.50;99.90;;;;;;12466324;28;19929;-86
2022/09/27 15:14:45;;;;;;;;;;;10.50;99.90;;;;;;12475229;28;19925;-86
2022/09/27 15:20:52;;;;;;;;;;;10.20;99.90;;;;;;12461170;28;20377;-86
2022/09/27 15:26:55;;;;;;;;;;;10.10;99.90;;;;;;12468341;28;20289;-86
2022/09/27 15:32:57;;;;;;;;;;;10.20;99.90;;;;;;12465027;28;20399;-86
2022/09/27 15:39:06;;;;;;;;;;;10.40;99.90;;;;;;12481752;28;19925;-86
2022/09/27 15:45:26;;;;;;;;;;;10.50;99.90;;;;;;12475707;28;20374;-86
2022/09/27 15:51:38;;;;;;;;;;;10.60;99.90;;;;;;12466256;28;19925;-86
2022/09/27 15:57:40;;;;;;;;;;;10.70;99.90;;;;;;12474051;28;19929;-86
2022/09/27 16:03:43;;;;;;;;;;;10.50;99.90;;;;;;12464143;28;19933;-86
2022/09/27 16:09:48;;;;;;;;;;;10.40;99.90;;;;;;12490925;28;19925;-86
2022/09/27 16:15:50;;;;;;;;;;;10.40;99.90;;;;;;12474718;28;19930;-86
2022/09/27 16:21:52;;;;;;;;;;;10.20;99.90;;;;;;12482383;28;19929;-86
2022/09/27 16:27:56;;;;;;;;;;;10.20;99.90;;;;;;12467707;28;20308;-86
2022/09/27 16:33:59;;;;;;;;;;;10.20;99.90;;;;;;12471664;28;20376;-86
2022/09/27 16:40:02;;;;;;;;;;;10.10;99.90;;;;;;12480293;28;20321;-86
2022/09/27 16:46:07;;;;;;;;;;;10.10;99.90;;;;;;12482264;28;19932;-86
2022/09/27 16:52:09;;;;;;;;;;;10.10;99.90;;;;;;12455327;28;19925;-85
2022/09/27 16:58:10;;;;;;;;;;;10.10;99.90;;;;;;12474336;28;20305;-85
2022/09/27 17:04:13;;;;;;;;;;;9.90;99.90;;;;;;12458207;28;20385;-86
2022/09/27 17:10:16;;;;;;;;;;;9.70;99.90;;;;;;12460412;28;19926;-85
2022/09/27 17:16:17;;;;;;;;;;;9.70;99.90;;;;;;12467036;28;19925;-86
2022/09/27 17:22:19;;;;;;;;;;;9.70;99.90;;;;;;12473920;28;20316;-86
2022/09/27 17:28:21;;;;;;;;;;;9.70;99.90;;;;;;12463647;28;19926;-86
2022/09/27 17:34:23;;;;;;;;;;;9.70;99.90;;;;;;12466759;28;19948;-85
2022/09/27 17:40:24;;;;;;;;;;;9.60;99.90;;;;;;12466922;28;20291;-85
2022/09/27 17:46:30;;;;;;;;;;;9.70;99.90;;;;;;12464585;28;19971;-85
2022/09/27 17:52:33;;;;;;;;;;;9.70;99.90;;;;;;12454123;28;20064;-85
2022/09/27 17:58:35;;;;;;;;;;;9.60;99.90;;;;;;12474789;28;19936;-85
2022/09/27 18:04:36;;;;;;;;;;;9.60;99.90;;;;;;12452976;28;19925;-85
2022/09/27 18:10:39;;;;;;;;;;;9.60;99.90;;;;;;12461357;28;19933;-85
2022/09/27 18:16:42;;;;;;;;;;;9.50;99.90;;;;;;12462733;28;19925;-85
2022/09/27 18:22:44;;;;;;;;;;;9.50;99.90;;;;;;12467696;28;19933;-85
2022/09/27 18:28:46;;;;;;;;;;;9.60;99.90;;;;;;12469049;28;19925;-85
2022/09/27 18:34:47;;;;;;;;;;;9.60;99.90;;;;;;12454880;28;19948;-85
2022/09/27 18:40:55;;;;;;;;;;;9.60;99.90;;;;;;12463531;28;19930;-85
2022/09/27 18:46:57;;;;;;;;;;;9.50;99.90;;;;;;12458570;28;19976;-85
2022/09/27 18:52:59;;;;;;;;;;;9.30;99.90;;;;;;12472790;28;19987;-85
2022/09/27 18:59:01;;;;;;;;;;;9.30;99.90;;;;;;12471339;28;19932;-85
2022/09/27 19:05:02;;;;;;;;;;;9.20;99.90;;;;;;12451230;28;20378;-85
2022/09/27 19:11:05;;;;;;;;;;;9.10;99.90;;;;;;12438998;28;19929;-85
2022/09/27 19:17:07;;;;;;;;;;;9.10;99.90;;;;;;12452135;28;19929;-85
2022/09/27 19:23:09;;;;;;;;;;;9.00;99.90;;;;;;12474190;28;19930;-85
2022/09/27 19:29:11;;;;;;;;;;;9.00;99.90;;;;;;12458391;28;19925;-85
2022/09/27 19:35:13;;;;;;;;;;;8.90;99.90;;;;;;12460357;28;20075;-85
2022/09/27 19:41:15;;;;;;;;;;;8.90;99.90;;;;;;12462410;28;19925;-85
2022/09/27 19:47:17;;;;;;;;;;;8.90;99.90;;;;;;12464029;28;20292;-85
2022/09/27 19:53:18;;;;;;;;;;;8.80;99.90;;;;;;12451106;28;19929;-85
2022/09/27 19:59:20;;;;;;;;;;;8.80;99.90;;;;;;12480421;28;20304;-85
2022/09/27 20:05:22;;;;;;;;;;;8.80;99.90;;;;;;12448045;28;19948;-85
2022/09/27 20:11:25;;;;;;;;;;;8.80;99.90;;;;;;12461751;28;19925;-85
2022/09/27 20:17:30;;;;;;;;;;;8.70;99.90;;;;;;12470186;28;20301;-85
2022/09/27 20:23:33;;;;;;;;;;;8.70;99.90;;;;;;12489379;28;19929;-85
2022/09/27 20:29:35;;;;;;;;;;;8.80;99.90;;;;;;12469402;28;20589;-85
2022/09/27 20:35:37;;;;;;;;;;;8.70;99.90;;;;;;12461669;28;20392;-85
2022/09/27 20:41:40;;;;;;;;;;;8.70;99.90;;;;;;12478420;28;19929;-85
2022/09/27 20:47:41;;;;;;;;;;;8.70;99.90;;;;;;12474846;28;19925;-85
2022/09/27 20:53:47;;;;;;;;;;;8.70;99.90;;;;;;12465841;28;19925;-85
2022/09/27 20:59:49;;;;;;;;;;;8.70;99.90;;;;;;12480117;28;19936;-85
2022/09/27 21:05:51;;;;;;;;;;;8.60;99.90;;;;;;12475884;28;19941;-84
2022/09/27 21:11:53;;;;;;;;;;;8.60;99.90;;;;;;12479466;28;19925;-84
2022/09/27 21:17:56;;;;;;;;;;;8.50;99.90;;;;;;12484003;28;20274;-84
2022/09/27 21:23:59;;;;;;;;;;;8.50;99.90;;;;;;12473895;28;19929;-85
2022/09/27 21:30:01;;;;;;;;;;;8.40;99.90;;;;;;12463672;28;19929;-84
2022/09/27 21:36:04;;;;;;;;;;;8.40;99.90;;;;;;12468285;28;20274;-85
2022/09/27 21:42:07;;;;;;;;;;;8.40;99.90;;;;;;12482164;28;19926;-85
2022/09/27 21:48:08;;;;;;;;;;;8.30;99.90;;;;;;12462823;28;19932;-84
2022/09/27 21:54:13;;;;;;;;;;;8.40;99.90;;;;;;12478283;28;19937;-84
2022/09/27 22:00:14;;;;;;;;;;;8.20;99.90;;;;;;12467612;28;19936;-85
2022/09/27 22:06:17;;;;;;;;;;;8.30;99.90;;;;;;12453857;28;19929;-85
2022/09/27 22:12:20;;;;;;;;;;;8.30;99.90;;;;;;12462132;28;20650;-84
2022/09/27 22:18:21;;;;;;;;;;;8.20;99.90;;;;;;12475522;28;19925;-85
2022/09/27 22:24:23;;;;;;;;;;;8.30;99.90;;;;;;12466429;28;19926;-85
2022/09/27 22:30:25;;;;;;;;;;;8.30;99.90;;;;;;12458976;28;19930;-84
2022/09/27 22:36:27;;;;;;;;;;;8.30;99.90;;;;;;12471137;28;19937;-84
2022/09/27 22:42:28;;;;;;;;;;;8.30;99.90;;;;;;12473068;28;19929;-84
2022/09/27 22:48:31;;;;;;;;;;;8.30;99.90;;;;;;12469905;28;19925;-85
2022/09/27 22:54:33;;;;;;;;;;;8.30;99.90;;;;;;12461860;28;20285;-85
2022/09/27 23:00:36;;;;;;;;;;;8.40;99.90;;;;;;12472015;28;19952;-84
2022/09/27 23:06:38;;;;;;;;;;;8.30;99.90;;;;;;12467797;28;19925;-85
2022/09/27 23:12:40;;;;;;;;;;;8.30;99.90;;;;;;12465024;28;19936;-85
2022/09/27 23:18:42;;;;;;;;;;;8.30;99.90;;;;;;12473851;28;19936;-85
2022/09/27 23:24:44;;;;;;;;;;;8.30;99.90;;;;;;12468321;28;21282;-84
2022/09/27 23:30:46;;;;;;;;;;;8.30;99.90;;;;;;12458085;28;19932;-84
2022/09/27 23:36:48;;;;;;;;;;;8.20;99.90;;;;;;12459775;28;19925;-84
2022/09/27 23:42:51;;;;;;;;;;;8.20;99.90;;;;;;12463867;28;19925;-84
2022/09/27 23:48:52;;;;;;;;;;;8.20;99.90;;;;;;12463644;28;19932;-84
2022/09/27 23:54:54;;;;;;;;;;;8.20;99.90;;;;;;12469578;28;19925;-84
